createdAt,value
2018-11-11T00:02:15.587Z,98885.30
2018-11-11T00:04:48.547Z,98885.22
2018-11-11T00:07:21.522Z,98893.50
2018-11-11T00:09:54.171Z,98896.11
2018-11-11T00:12:27.867Z,98890.89
2018-11-11T00:15:00.536Z,98895.70
2018-11-11T00:17:35.638Z,98884.76
2018-11-11T00:20:10.551Z,98882.72
2018-11-11T00:22:43.273Z,98881.38
2018-11-11T00:25:16.005Z,98885.11
2018-11-11T00:27:50.161Z,98882.75
2018-11-11T00:30:24.085Z,98882.38
2018-11-11T00:32:57.371Z,98875.12
2018-11-11T00:35:31.763Z,98876.61
2018-11-11T00:38:04.761Z,98878.98
2018-11-11T00:40:37.392Z,98879.46
2018-11-11T00:43:11.923Z,98875.98
2018-11-11T00:45:45.841Z,98870.48
2018-11-11T00:48:19.665Z,98876.27
2018-11-11T00:50:58.764Z,98882.60
2018-11-11T00:53:33.045Z,98885.69
2018-11-11T00:56:08.980Z,98888.59
2018-11-11T00:58:44.893Z,98889.38
2018-11-11T01:01:18.062Z,98888.38
2018-11-11T01:03:51.640Z,98892.50
2018-11-11T01:06:24.308Z,98896.80
2018-11-11T01:08:58.278Z,98897.27
2018-11-11T01:11:31.880Z,98898.44
2018-11-11T01:14:04.459Z,98902.16
2018-11-11T01:16:37.389Z,98910.73
2018-11-11T01:19:10.484Z,98916.81
2018-11-11T01:21:43.117Z,98913.95
2018-11-11T01:24:15.690Z,98911.58
2018-11-11T01:26:49.666Z,98910.86
2018-11-11T01:29:22.464Z,98921.92
2018-11-11T01:31:55.901Z,98917.14
2018-11-11T01:34:29.322Z,98923.73
2018-11-11T01:37:02.855Z,98920.66
2018-11-11T01:39:35.406Z,98920.16
2018-11-11T01:42:09.533Z,98913.09
2018-11-11T01:44:42.202Z,98903.79
2018-11-11T01:47:14.748Z,98901.91
2018-11-11T01:49:51.187Z,98904.48
2018-11-11T01:52:25.649Z,98891.75
2018-11-11T01:55:03.162Z,98893.81
2018-11-11T01:57:37.593Z,98893.95
2018-11-11T02:00:16.178Z,98895.70
2018-11-11T02:02:49.517Z,98903.98
2018-11-11T02:05:23.570Z,98900.10
2018-11-11T02:07:56.281Z,98900.06
2018-11-11T02:10:30.524Z,98901.05
2018-11-11T02:13:03.555Z,98905.67
2018-11-11T02:15:36.988Z,98905.17
2018-11-11T02:18:09.721Z,98908.16
2018-11-11T02:20:43.638Z,98905.71
2018-11-11T02:23:17.075Z,98908.38
2018-11-11T02:25:50.406Z,98902.05
2018-11-11T02:28:23.631Z,98896.52
2018-11-11T02:30:57.106Z,98902.44
2018-11-11T02:33:29.977Z,98902.30
2018-11-11T02:36:06.205Z,98909.77
2018-11-11T02:38:45.002Z,98910.00
2018-11-11T02:41:21.249Z,98906.86
2018-11-11T02:43:54.787Z,98905.76
2018-11-11T02:46:28.114Z,98900.19
2018-11-11T02:49:00.791Z,98895.77
2018-11-11T02:51:35.598Z,98899.53
2018-11-11T02:54:08.176Z,98892.86
2018-11-11T02:56:40.782Z,98900.41
2018-11-11T02:59:15.926Z,98890.05
2018-11-11T03:01:48.623Z,98901.36
2018-11-11T03:04:22.049Z,98898.83
2018-11-11T03:06:55.006Z,98903.24
2018-11-11T03:09:30.477Z,98903.34
2018-11-11T03:12:03.856Z,98892.72
2018-11-11T03:14:37.705Z,98896.78
2018-11-11T03:17:10.443Z,98889.90
2018-11-11T03:19:43.190Z,98883.34
2018-11-11T03:22:16.122Z,98891.59
2018-11-11T03:24:48.735Z,98893.30
2018-11-11T03:27:25.605Z,98892.19
2018-11-11T03:29:58.731Z,98890.34
2018-11-11T03:32:31.574Z,98893.40
2018-11-11T03:35:06.001Z,98889.75
2018-11-11T03:37:38.902Z,98895.39
2018-11-11T03:40:15.110Z,98906.55
2018-11-11T03:42:48.085Z,98900.02
2018-11-11T03:45:21.710Z,98904.47
2018-11-11T03:47:55.020Z,98899.38
2018-11-11T03:50:29.057Z,98897.50
2018-11-11T03:53:02.215Z,98889.63
2018-11-11T03:55:36.640Z,98883.91
2018-11-11T03:58:10.478Z,98879.46
2018-11-11T04:00:47.377Z,98880.91
2018-11-11T04:03:19.906Z,98880.58
2018-11-11T04:05:53.937Z,98884.30
2018-11-11T04:08:27.316Z,98889.02
2018-11-11T04:10:59.879Z,98888.77
2018-11-11T04:13:32.726Z,98892.73
2018-11-11T04:16:08.432Z,98886.46
2018-11-11T04:18:40.917Z,98894.11
2018-11-11T04:21:15.252Z,98899.89
2018-11-11T04:23:49.133Z,98891.89
2018-11-11T04:26:21.989Z,98884.04
2018-11-11T04:28:54.521Z,98879.09
2018-11-11T04:31:27.532Z,98886.82
2018-11-11T04:34:00.233Z,98885.88
2018-11-11T04:36:32.833Z,98894.42
2018-11-11T04:39:11.176Z,98886.45
2018-11-11T04:41:44.783Z,98896.55
2018-11-11T04:44:17.349Z,98893.71
2018-11-11T04:46:51.581Z,98893.75
2018-11-11T04:49:24.822Z,98895.86
2018-11-11T04:51:57.626Z,98903.88
2018-11-11T04:54:32.032Z,98904.91
2018-11-11T04:57:06.137Z,98901.29
2018-11-11T04:59:38.795Z,98897.02
2018-11-11T05:02:12.984Z,98909.52
2018-11-11T05:04:57.574Z,98910.63
2018-11-11T05:07:30.237Z,98919.13
2018-11-11T05:10:05.923Z,98914.47
2018-11-11T05:12:38.478Z,98920.03
2018-11-11T05:15:14.851Z,98913.19
2018-11-11T05:17:48.154Z,98915.01
2018-11-11T05:20:20.737Z,98919.34
2018-11-11T05:22:53.474Z,98923.53
2018-11-11T05:25:26.276Z,98923.53
2018-11-11T05:27:59.567Z,98915.47
2018-11-11T05:30:32.130Z,98921.02
2018-11-11T05:33:04.942Z,98922.38
2018-11-11T05:35:37.709Z,98926.41
2018-11-11T05:38:10.759Z,98927.24
2018-11-11T05:40:43.533Z,98928.97
2018-11-11T05:43:16.649Z,98912.39
2018-11-11T05:45:49.937Z,98919.52
2018-11-11T05:48:24.562Z,98912.78
2018-11-11T05:50:57.166Z,98912.11
2018-11-11T05:53:29.690Z,98921.94
2018-11-11T05:56:02.845Z,98930.12
2018-11-11T05:58:36.337Z,98932.13
2018-11-11T06:01:11.871Z,98927.67
2018-11-11T06:03:49.994Z,98926.02
2018-11-11T06:06:22.717Z,98934.34
2018-11-11T06:08:55.614Z,98940.67
2018-11-11T06:11:28.234Z,98942.95
2018-11-11T06:14:00.779Z,98936.78
2018-11-11T06:16:33.806Z,98933.68
2018-11-11T06:19:06.766Z,98926.63
2018-11-11T06:21:39.302Z,98926.07
2018-11-11T06:24:12.381Z,98922.94
2018-11-11T06:26:45.124Z,98924.53
2018-11-11T06:29:18.266Z,98916.23
2018-11-11T06:31:51.025Z,98926.52
2018-11-11T06:34:24.556Z,98927.44
2018-11-11T06:36:57.297Z,98934.81
2018-11-11T06:39:31.343Z,98938.39
2018-11-11T06:42:04.410Z,98934.33
2018-11-11T06:44:37.125Z,98942.06
2018-11-11T06:47:11.054Z,98941.74
2018-11-11T06:49:45.574Z,98948.15
2018-11-11T06:52:18.348Z,98941.80
2018-11-11T06:54:55.669Z,98938.51
2018-11-11T06:57:28.204Z,98943.00
2018-11-11T07:00:06.144Z,98942.66
2018-11-11T07:02:39.728Z,98953.16
2018-11-11T07:05:13.696Z,98959.88
2018-11-11T07:07:47.669Z,98962.23
2018-11-11T07:10:20.701Z,98965.37
2018-11-11T07:12:55.329Z,98975.52
2018-11-11T07:15:28.694Z,98978.83
2018-11-11T07:18:01.798Z,98983.98
2018-11-11T07:20:35.078Z,98987.38
2018-11-11T07:23:07.933Z,98994.71
2018-11-11T07:25:40.913Z,98996.46
2018-11-11T07:28:15.712Z,98998.81
2018-11-11T07:30:48.431Z,99003.76
2018-11-11T07:33:21.046Z,99006.72
2018-11-11T07:35:58.859Z,99012.84
2018-11-11T07:38:42.019Z,99017.84
2018-11-11T07:41:16.887Z,99023.57
2018-11-11T07:43:51.275Z,99028.98
2018-11-11T07:46:26.339Z,99036.44
2018-11-11T07:48:59.777Z,99030.81
2018-11-11T07:51:35.286Z,99023.83
2018-11-11T07:54:08.183Z,99028.66
2018-11-11T07:56:41.416Z,99031.52
2018-11-11T07:59:15.490Z,99037.10
2018-11-11T08:01:50.610Z,99042.50
2018-11-11T08:04:23.395Z,99040.72
2018-11-11T08:06:57.585Z,99042.64
2018-11-11T08:09:42.756Z,99038.34
2018-11-11T08:12:16.629Z,99044.21
2018-11-11T08:14:55.719Z,99045.98
2018-11-11T08:17:31.591Z,99028.97
2018-11-11T08:20:05.250Z,99038.36
2018-11-11T08:22:45.565Z,99040.14
2018-11-11T08:25:22.268Z,99043.00
2018-11-11T08:27:58.614Z,99042.65
2018-11-11T08:30:32.555Z,99045.17
2018-11-11T08:33:05.978Z,99042.73
2018-11-11T08:35:39.928Z,99044.89
2018-11-11T08:38:13.688Z,99053.73
2018-11-11T08:40:48.333Z,99054.89
2018-11-11T08:43:27.334Z,99058.30
2018-11-11T08:46:02.819Z,99052.67
2018-11-11T08:48:38.497Z,99068.02
2018-11-11T08:51:12.050Z,99064.36
2018-11-11T08:53:45.675Z,99078.90
2018-11-11T08:56:25.139Z,99088.50
2018-11-11T08:59:04.170Z,99097.69
2018-11-11T09:01:52.812Z,99091.08
2018-11-11T09:04:44.954Z,99085.25
2018-11-11T09:07:21.115Z,99087.95
2018-11-11T09:09:55.387Z,99091.50
2018-11-11T09:12:29.203Z,99092.45
2018-11-11T09:15:14.818Z,99094.17
2018-11-11T09:17:54.184Z,99114.62
2018-11-11T09:20:34.916Z,99111.91
2018-11-11T09:23:11.561Z,99097.27
2018-11-11T09:25:46.643Z,99106.19
2018-11-11T09:28:19.977Z,99103.88
2018-11-11T09:30:55.122Z,99101.17
2018-11-11T09:33:31.836Z,99088.13
2018-11-11T09:36:06.417Z,99104.34
2018-11-11T09:38:41.868Z,99106.86
2018-11-11T09:41:18.850Z,99102.20
2018-11-11T09:43:58.873Z,99105.42
2018-11-11T09:46:49.185Z,99093.94
2018-11-11T09:49:31.235Z,99105.00
2018-11-11T09:52:08.323Z,99103.48
2018-11-11T09:54:42.073Z,99104.34
2018-11-11T09:57:19.657Z,99113.12
2018-11-11T09:59:53.276Z,99121.52
2018-11-11T10:02:30.746Z,99116.95
2018-11-11T10:05:16.479Z,99119.63
2018-11-11T10:08:10.632Z,99113.09
2018-11-11T10:11:07.069Z,99108.60
2018-11-11T10:13:49.878Z,99107.88
2018-11-11T10:16:29.696Z,99112.32
2018-11-11T10:19:19.108Z,99112.55
2018-11-11T10:22:03.774Z,99118.52
2018-11-11T10:24:50.689Z,99121.61
2018-11-11T10:27:56.238Z,99123.00
2018-11-11T10:30:57.793Z,99112.22
2018-11-11T10:33:41.750Z,99126.98
2018-11-11T10:36:33.276Z,99122.89
2018-11-11T10:39:36.712Z,99134.19
2018-11-11T10:42:16.521Z,99133.72
2018-11-11T10:45:08.907Z,99138.58
2018-11-11T10:48:01.992Z,99133.83
2018-11-11T10:51:01.974Z,99144.08
2018-11-11T10:53:43.203Z,99154.78
2018-11-11T10:56:18.215Z,99150.10
2018-11-11T10:58:52.486Z,99162.98
2018-11-11T11:01:51.651Z,99172.17
2018-11-11T11:04:56.282Z,99161.92
2018-11-11T11:07:30.469Z,99171.19
2018-11-11T11:10:03.906Z,99174.89
2018-11-11T11:12:38.599Z,99174.95
2018-11-11T11:15:17.469Z,99177.71
2018-11-11T11:17:51.376Z,99179.59
2018-11-11T11:20:28.560Z,99185.03
2018-11-11T11:23:02.842Z,99169.74
2018-11-11T11:25:42.736Z,99187.20
2018-11-11T11:28:22.523Z,99190.30
2018-11-11T11:30:59.022Z,99190.84
2018-11-11T11:33:38.020Z,99201.17
2018-11-11T11:36:11.761Z,99203.45
2018-11-11T11:38:45.624Z,99209.27
2018-11-11T11:41:18.487Z,99194.22
2018-11-11T11:44:01.937Z,99205.91
2018-11-11T11:46:36.328Z,99198.69
2018-11-11T11:49:12.759Z,99198.64
2018-11-11T11:51:56.058Z,99192.02
2018-11-11T11:54:34.860Z,99188.98
2018-11-11T11:57:09.228Z,99192.32
2018-11-11T11:59:46.417Z,99187.98
2018-11-11T12:02:22.395Z,99191.58
2018-11-11T12:04:56.110Z,99185.07
2018-11-11T12:07:30.604Z,99186.47
2018-11-11T12:10:07.810Z,99179.27
2018-11-11T12:12:47.068Z,99187.47
2018-11-11T12:15:25.760Z,99172.42
2018-11-11T12:18:03.987Z,99183.81
2018-11-11T12:20:38.719Z,99189.64
2018-11-11T12:23:15.181Z,99194.16
2018-11-11T12:25:52.782Z,99194.97
2018-11-11T12:28:37.249Z,99206.23
2018-11-11T12:31:13.811Z,99211.45
2018-11-11T12:33:48.022Z,99206.50
2018-11-11T12:36:41.240Z,99211.73
2018-11-11T12:39:18.469Z,99209.78
2018-11-11T12:41:54.865Z,99211.11
2018-11-11T12:44:47.729Z,99206.38
2018-11-11T12:47:32.110Z,99211.16
2018-11-11T12:50:14.423Z,99200.11
2018-11-11T12:53:04.963Z,99209.59
2018-11-11T12:55:52.309Z,99207.46
2018-11-11T12:58:35.281Z,99214.16
2018-11-11T13:01:12.861Z,99215.10
2018-11-11T13:03:57.448Z,99221.06
2018-11-11T13:06:36.848Z,99224.06
2018-11-11T13:09:24.597Z,99230.38
2018-11-11T13:12:06.221Z,99231.16
2018-11-11T13:15:05.046Z,99226.80
2018-11-11T13:17:52.808Z,99231.20
2018-11-11T13:20:29.585Z,99231.98
2018-11-11T13:23:08.494Z,99234.86
2018-11-11T13:25:45.286Z,99236.16
2018-11-11T13:28:27.203Z,99240.83
2018-11-11T13:31:17.125Z,99246.16
2018-11-11T13:33:53.108Z,99241.93
2018-11-11T13:36:35.095Z,99247.02
2018-11-11T13:39:16.182Z,99244.78
2018-11-11T13:41:54.434Z,99244.25
2018-11-11T13:44:30.643Z,99248.31
2018-11-11T13:47:13.926Z,99255.20
2018-11-11T13:49:52.363Z,99256.35
2018-11-11T13:52:25.512Z,99261.08
2018-11-11T13:54:59.837Z,99266.60
2018-11-11T13:57:36.335Z,99279.26
2018-11-11T14:00:25.886Z,99274.05
2018-11-11T14:03:05.141Z,99274.15
2018-11-11T14:05:58.105Z,99270.28
2018-11-11T14:08:31.815Z,99269.91
2018-11-11T14:11:09.387Z,99262.69
2018-11-11T14:13:44.556Z,99266.40
2018-11-11T14:16:21.394Z,99266.45
2018-11-11T14:18:55.627Z,99273.64
2018-11-11T14:21:30.733Z,99266.41
2018-11-11T14:24:10.896Z,99277.90
2018-11-11T14:27:01.771Z,99281.59
2018-11-11T14:29:40.666Z,99277.77
2018-11-11T14:32:16.501Z,99289.62
2018-11-11T14:34:57.095Z,99292.92
2018-11-11T14:37:33.433Z,99300.71
2018-11-11T14:40:22.230Z,99301.58
2018-11-11T14:43:01.041Z,99301.08
2018-11-11T14:45:36.734Z,99303.77
2018-11-11T14:48:16.274Z,99308.30
2018-11-11T14:50:56.160Z,99314.76
2018-11-11T14:53:30.431Z,99323.42
2018-11-11T14:56:04.990Z,99311.23
2018-11-11T14:58:43.865Z,99300.57
2018-11-11T15:01:24.942Z,99284.62
2018-11-11T15:04:00.804Z,99293.48
2018-11-11T15:06:53.375Z,99295.75
2018-11-11T15:09:26.230Z,99294.72
2018-11-11T15:12:04.009Z,99289.92
2018-11-11T15:14:41.466Z,99284.95
2018-11-11T15:17:20.828Z,99285.71
2018-11-11T15:19:58.206Z,99286.47
2018-11-11T15:22:33.421Z,99297.90
2018-11-11T15:25:12.679Z,99302.13
2018-11-11T15:28:05.170Z,99299.26
2018-11-11T15:30:44.234Z,99300.48
2018-11-11T15:33:20.922Z,99303.32
2018-11-11T15:36:05.634Z,99301.83
2018-11-11T15:38:43.868Z,99301.91
2018-11-11T15:41:21.345Z,99314.37
2018-11-11T15:44:01.658Z,99307.63
2018-11-11T15:46:48.497Z,99300.54
2018-11-11T15:49:28.887Z,99301.61
2018-11-11T15:52:05.223Z,99308.54
2018-11-11T15:54:39.004Z,99311.14
2018-11-11T15:57:17.733Z,99314.95
2018-11-11T15:59:56.785Z,99319.62
2018-11-11T16:02:40.374Z,99319.84
2018-11-11T16:05:34.942Z,99315.05
2018-11-11T16:08:29.445Z,99313.52
2018-11-11T16:11:08.445Z,99317.30
2018-11-11T16:13:53.383Z,99311.13
2018-11-11T16:16:39.545Z,99322.90
2018-11-11T16:19:36.761Z,99323.86
2018-11-11T16:22:23.412Z,99327.57
2018-11-11T16:25:00.543Z,99338.94
2018-11-11T16:27:54.693Z,99339.91
2018-11-11T16:30:47.115Z,99334.88
2018-11-11T16:37:27.110Z,99319.12
2018-11-11T16:40:09.137Z,99319.29
2018-11-11T16:42:52.220Z,99331.23
2018-11-11T16:45:33.454Z,99326.73
2018-11-11T16:48:12.100Z,99327.64
2018-11-11T16:50:51.332Z,99325.34
2018-11-11T16:53:30.211Z,99336.66
2018-11-11T16:56:11.799Z,99339.09
2018-11-11T16:58:46.640Z,99339.45
2018-11-11T17:01:23.465Z,99343.13
2018-11-11T17:03:58.958Z,99333.95
2018-11-11T17:06:32.643Z,99331.62
2018-11-11T17:09:15.502Z,99340.48
2018-11-11T17:11:50.944Z,99340.02
2018-11-11T17:14:26.934Z,99342.75
2018-11-11T17:17:03.396Z,99349.45
2018-11-11T17:19:45.248Z,99348.45
2018-11-11T17:22:19.220Z,99350.75
2018-11-11T17:24:54.007Z,99348.41
2018-11-11T17:27:44.743Z,99347.72
2018-11-11T17:31:22.243Z,99348.55
2018-11-11T17:34:14.123Z,99357.20
2018-11-11T17:37:13.245Z,99360.75
2018-11-11T17:39:56.950Z,99363.28
2018-11-11T17:42:42.838Z,99374.14
2018-11-11T17:45:25.498Z,99360.41
2018-11-11T17:48:12.521Z,99384.11
2018-11-11T17:51:04.259Z,99395.78
2018-11-11T17:53:41.390Z,99402.42
2018-11-11T17:59:38.830Z,99402.00
2018-11-11T18:02:37.776Z,99396.23
2018-11-11T18:05:38.289Z,99394.91
2018-11-11T18:08:14.452Z,99400.30
2018-11-11T18:10:52.381Z,99381.72
2018-11-11T18:13:32.076Z,99381.53
2018-11-11T18:16:12.471Z,99376.45
2018-11-11T18:18:48.362Z,99382.27
2018-11-11T18:21:33.826Z,99396.84
2018-11-11T18:24:15.402Z,99393.13
2018-11-11T18:26:57.692Z,99381.06
2018-11-11T18:29:36.859Z,99365.70
2018-11-11T18:32:13.648Z,99365.39
2018-11-11T18:34:49.430Z,99365.75
2018-11-11T18:37:23.057Z,99364.00
2018-11-11T18:40:03.533Z,99362.90
2018-11-11T18:42:45.581Z,99359.16
2018-11-11T18:45:23.029Z,99375.52
2018-11-11T18:47:59.459Z,99391.30
2018-11-11T18:50:36.193Z,99403.75
2018-11-11T18:53:49.599Z,99423.13
2018-11-11T18:56:33.805Z,99432.17
2018-11-11T18:59:14.495Z,99461.16
2018-11-11T19:01:56.341Z,99479.34
2018-11-11T19:04:40.101Z,99488.08
2018-11-11T19:07:23.782Z,99475.48
2018-11-11T19:10:05.636Z,99474.61
2018-11-11T19:12:43.773Z,99485.66
2018-11-11T19:15:22.965Z,99493.90
2018-11-11T19:18:03.960Z,99502.17
2018-11-11T19:20:44.806Z,99501.89
2018-11-11T19:23:18.380Z,99495.41
2018-11-11T19:26:01.686Z,99486.11
2018-11-11T19:28:37.418Z,99493.38
2018-11-11T19:31:12.291Z,99486.77
2018-11-11T19:33:50.608Z,99502.91
2018-11-11T19:36:29.183Z,99508.05
2018-11-11T19:39:11.716Z,99504.47
2018-11-11T19:41:48.665Z,99508.58
2018-11-11T19:44:24.232Z,99529.53
2018-11-11T19:47:08.568Z,99523.53
2018-11-11T19:49:42.832Z,99527.55
2018-11-11T19:52:23.245Z,99525.41
2018-11-11T19:55:03.036Z,99526.00
2018-11-11T19:57:38.191Z,99511.06
2018-11-11T20:00:24.352Z,99508.52
2018-11-11T20:02:57.678Z,99517.77
2018-11-11T20:05:35.160Z,99519.25
2018-11-11T20:08:14.747Z,99514.04
2018-11-11T20:10:59.360Z,99513.48
2018-11-11T20:13:32.745Z,99522.30
2018-11-11T20:16:09.349Z,99520.78
2018-11-11T20:18:44.070Z,99523.03
2018-11-11T20:21:25.578Z,99546.80
2018-11-11T20:24:01.727Z,99556.94
2018-11-11T20:26:42.384Z,99555.61
2018-11-11T20:29:22.174Z,99575.76
2018-11-11T20:31:58.797Z,99578.75
2018-11-11T20:34:35.622Z,99575.20
2018-11-11T20:37:12.695Z,99571.39
2018-11-11T20:39:49.147Z,99572.19
2018-11-11T20:42:25.232Z,99600.93
2018-11-11T20:45:06.946Z,99598.73
2018-11-11T20:47:48.181Z,99614.55
2018-11-11T20:50:49.761Z,99611.57
2018-11-11T20:53:27.856Z,99620.70
2018-11-11T20:56:04.524Z,99618.87
2018-11-11T20:58:41.683Z,99609.03
2018-11-11T21:01:21.911Z,99616.06
2018-11-11T21:03:58.517Z,99612.86
2018-11-11T21:06:42.687Z,99615.88
2018-11-11T21:09:30.601Z,99600.73
2018-11-11T21:12:13.052Z,99610.01
2018-11-11T21:14:50.410Z,99602.13
2018-11-11T21:17:34.571Z,99610.42
2018-11-11T21:20:13.767Z,99607.47
2018-11-11T21:22:57.117Z,99617.67
2018-11-11T21:25:40.995Z,99610.30
2018-11-11T21:28:16.819Z,99611.68
2018-11-11T21:31:01.316Z,99619.64
2018-11-11T21:33:38.512Z,99622.82
2018-11-11T21:36:21.331Z,99622.62
2018-11-11T21:39:05.393Z,99625.43
2018-11-11T21:41:51.392Z,99627.28
2018-11-11T21:44:30.768Z,99607.20
2018-11-11T21:47:16.080Z,99612.28
2018-11-11T21:50:00.431Z,99627.25
2018-11-11T21:52:39.956Z,99634.77
2018-11-11T21:55:23.486Z,99646.13
2018-11-11T21:58:08.068Z,99646.70
2018-11-11T22:00:44.250Z,99642.98
2018-11-11T22:03:23.697Z,99653.51
2018-11-11T22:06:03.981Z,99659.75
2018-11-11T22:08:46.591Z,99662.39
2018-11-11T22:11:23.049Z,99665.16
2018-11-11T22:14:00.895Z,99660.61
2018-11-11T22:16:36.720Z,99649.19
2018-11-11T22:19:14.490Z,99650.45
2018-11-11T22:21:52.026Z,99659.50
2018-11-11T22:24:26.488Z,99668.44
2018-11-11T22:27:01.880Z,99675.30
2018-11-11T22:30:07.987Z,99682.80
2018-11-11T22:32:41.469Z,99681.16
2018-11-11T22:35:26.531Z,99688.49
2018-11-11T22:38:01.995Z,99686.55
2018-11-11T22:40:35.774Z,99698.93
2018-11-11T22:43:10.574Z,99706.13
2018-11-11T22:45:45.735Z,99707.70
2018-11-11T22:48:20.776Z,99709.05
2018-11-11T22:50:58.410Z,99713.17
2018-11-11T22:53:37.889Z,99718.66
2018-11-11T22:56:19.806Z,99716.64
2018-11-11T22:58:55.636Z,99714.61
2018-11-11T23:01:29.418Z,99705.73
2018-11-11T23:04:05.826Z,99715.69
2018-11-11T23:06:41.773Z,99707.23
2018-11-11T23:09:17.591Z,99698.53
2018-11-11T23:11:50.736Z,99696.99
2018-11-11T23:14:23.796Z,99700.84
2018-11-11T23:16:58.519Z,99709.17
2018-11-11T23:19:33.752Z,99714.05
2018-11-11T23:22:10.865Z,99710.22
2018-11-11T23:24:47.858Z,99709.08
2018-11-11T23:27:24.189Z,99706.67
2018-11-11T23:30:00.831Z,99715.22
2018-11-11T23:32:35.860Z,99716.25
2018-11-11T23:35:10.789Z,99719.45
2018-11-11T23:37:45.795Z,99717.11
2018-11-11T23:40:19.421Z,99721.19
2018-11-11T23:42:53.550Z,99727.46
2018-11-11T23:45:28.864Z,99722.50
2018-11-11T23:48:01.861Z,99719.97
2018-11-11T23:50:35.901Z,99719.69
2018-11-11T23:53:10.854Z,99709.53
2018-11-11T23:55:44.882Z,99705.00
2018-11-11T23:58:18.366Z,99700.20
